sensor_id;sensor_type;location;lat;lon;timestamp;temperature;humidity
10828;DHT22;5467;59.334;13.512;2022-08-11T00:01:44;16.90;99.90
10828;DHT22;5467;59.334;13.512;2022-08-11T00:04:13;16.90;99.90
10828;DHT22;5467;59.334;13.512;2022-08-11T00:06:43;16.80;99.90
10828;DHT22;5467;59.334;13.512;2022-08-11T00:09:15;16.90;99.90
10828;DHT22;5467;59.334;13.512;2022-08-11T00:11:45;16.90;99.90
10828;DHT22;5467;59.334;13.512;2022-08-11T00:14:15;16.90;99.90
10828;DHT22;5467;59.334;13.512;2022-08-11T00:16:52;16.90;99.90
10828;DHT22;5467;59.334;13.512;2022-08-11T00:19:23;16.80;99.90
10828;DHT22;5467;59.334;13.512;2022-08-11T00:21:51;16.80;99.90
10828;DHT22;5467;59.334;13.512;2022-08-11T00:24:19;16.70;99.90
10828;DHT22;5467;59.334;13.512;2022-08-11T00:26:48;16.80;99.90
10828;DHT22;5467;59.334;13.512;2022-08-11T00:29:19;16.70;99.90
10828;DHT22;5467;59.334;13.512;2022-08-11T00:31:49;16.70;99.90
10828;DHT22;5467;59.334;13.512;2022-08-11T00:34:19;16.90;99.90
10828;DHT22;5467;59.334;13.512;2022-08-11T00:36:52;16.80;99.90
10828;DHT22;5467;59.334;13.512;2022-08-11T00:39:21;16.70;99.90
10828;DHT22;5467;59.334;13.512;2022-08-11T00:42:03;16.80;99.90
10828;DHT22;5467;59.334;13.512;2022-08-11T00:44:41;16.80;99.90
10828;DHT22;5467;59.334;13.512;2022-08-11T00:47:20;16.90;99.90
10828;DHT22;5467;59.334;13.512;2022-08-11T00:50:00;16.80;99.90
10828;DHT22;5467;59.334;13.512;2022-08-11T00:53:03;16.80;99.90
10828;DHT22;5467;59.334;13.512;2022-08-11T00:55:51;16.80;99.90
10828;DHT22;5467;59.334;13.512;2022-08-11T01:01:42;16.80;99.90
10828;DHT22;5467;59.334;13.512;2022-08-11T01:04:38;16.80;99.90
10828;DHT22;5467;59.334;13.512;2022-08-11T01:10:43;16.80;99.90
10828;DHT22;5467;59.334;13.512;2022-08-11T01:13:35;16.80;99.90
10828;DHT22;5467;59.334;13.512;2022-08-11T01:16:35;16.70;99.90
10828;DHT22;5467;59.334;13.512;2022-08-11T01:19:36;16.70;99.90
10828;DHT22;5467;59.334;13.512;2022-08-11T01:25:44;16.70;99.90
10828;DHT22;5467;59.334;13.512;2022-08-11T01:43:45;16.50;99.90
10828;DHT22;5467;59.334;13.512;2022-08-11T01:46:53;16.50;99.90
10828;DHT22;5467;59.334;13.512;2022-08-11T01:49:26;16.60;99.90
10828;DHT22;5467;59.334;13.512;2022-08-11T01:52:16;16.50;99.90
10828;DHT22;5467;59.334;13.512;2022-08-11T01:54:51;16.60;99.90
10828;DHT22;5467;59.334;13.512;2022-08-11T01:57:30;16.70;99.90
10828;DHT22;5467;59.334;13.512;2022-08-11T02:00:06;16.60;99.90
10828;DHT22;5467;59.334;13.512;2022-08-11T02:02:40;16.70;99.90
10828;DHT22;5467;59.334;13.512;2022-08-11T02:05:25;16.70;99.90
10828;DHT22;5467;59.334;13.512;2022-08-11T02:08:02;16.70;99.90
10828;DHT22;5467;59.334;13.512;2022-08-11T02:10:39;16.50;99.90
10828;DHT22;5467;59.334;13.512;2022-08-11T02:13:35;16.50;99.90
10828;DHT22;5467;59.334;13.512;2022-08-11T02:16:16;16.50;99.90
10828;DHT22;5467;59.334;13.512;2022-08-11T02:18:51;16.60;99.90
10828;DHT22;5467;59.334;13.512;2022-08-11T02:21:43;16.60;99.90
10828;DHT22;5467;59.334;13.512;2022-08-11T02:24:33;16.60;99.90
10828;DHT22;5467;59.334;13.512;2022-08-11T02:27:05;16.60;99.90
10828;DHT22;5467;59.334;13.512;2022-08-11T02:29:42;16.50;99.90
10828;DHT22;5467;59.334;13.512;2022-08-11T02:32:18;16.50;99.90
10828;DHT22;5467;59.334;13.512;2022-08-11T02:35:13;16.50;99.90
10828;DHT22;5467;59.334;13.512;2022-08-11T02:37:50;16.50;99.90
10828;DHT22;5467;59.334;13.512;2022-08-11T02:40:27;16.50;99.90
10828;DHT22;5467;59.334;13.512;2022-08-11T02:43:21;16.50;99.90
10828;DHT22;5467;59.334;13.512;2022-08-11T02:46:00;16.50;99.90
10828;DHT22;5467;59.334;13.512;2022-08-11T02:48:50;16.50;99.90
10828;DHT22;5467;59.334;13.512;2022-08-11T02:51:41;16.40;99.90
10828;DHT22;5467;59.334;13.512;2022-08-11T02:54:16;16.40;99.90
10828;DHT22;5467;59.334;13.512;2022-08-11T02:56:51;16.40;99.90
10828;DHT22;5467;59.334;13.512;2022-08-11T02:59:32;16.40;99.90
10828;DHT22;5467;59.334;13.512;2022-08-11T03:02:34;16.50;99.90
10828;DHT22;5467;59.334;13.512;2022-08-11T03:05:16;16.50;99.90
10828;DHT22;5467;59.334;13.512;2022-08-11T03:07:56;16.60;99.90
10828;DHT22;5467;59.334;13.512;2022-08-11T03:10:30;16.60;99.90
10828;DHT22;5467;59.334;13.512;2022-08-11T03:13:07;16.60;99.90
10828;DHT22;5467;59.334;13.512;2022-08-11T03:16:11;16.60;99.90
10828;DHT22;5467;59.334;13.512;2022-08-11T03:19:06;16.50;99.90
10828;DHT22;5467;59.334;13.512;2022-08-11T03:21:40;16.40;99.90
10828;DHT22;5467;59.334;13.512;2022-08-11T03:24:14;16.40;99.90
10828;DHT22;5467;59.334;13.512;2022-08-11T03:26:51;16.50;99.90
10828;DHT22;5467;59.334;13.512;2022-08-11T03:29:29;16.50;99.90
10828;DHT22;5467;59.334;13.512;2022-08-11T03:32:01;16.50;99.90
10828;DHT22;5467;59.334;13.512;2022-08-11T03:34:33;16.50;99.90
10828;DHT22;5467;59.334;13.512;2022-08-11T03:37:16;16.50;99.90
10828;DHT22;5467;59.334;13.512;2022-08-11T03:40:08;16.50;99.90
10828;DHT22;5467;59.334;13.512;2022-08-11T03:42:45;16.40;99.90
10828;DHT22;5467;59.334;13.512;2022-08-11T03:45:22;16.50;99.90
10828;DHT22;5467;59.334;13.512;2022-08-11T03:48:04;16.40;99.90
10828;DHT22;5467;59.334;13.512;2022-08-11T03:51:05;16.50;99.90
10828;DHT22;5467;59.334;13.512;2022-08-11T03:53:54;16.60;99.90
10828;DHT22;5467;59.334;13.512;2022-08-11T03:59:53;16.60;99.90
10828;DHT22;5467;59.334;13.512;2022-08-11T04:02:48;16.70;99.90
10828;DHT22;5467;59.334;13.512;2022-08-11T04:05:48;16.50;99.90
10828;DHT22;5467;59.334;13.512;2022-08-11T04:11:57;16.50;99.90
10828;DHT22;5467;59.334;13.512;2022-08-11T04:14:49;16.50;99.90
10828;DHT22;5467;59.334;13.512;2022-08-11T04:18:04;16.70;99.90
10828;DHT22;5467;59.334;13.512;2022-08-11T04:21:05;16.80;99.90
10828;DHT22;5467;59.334;13.512;2022-08-11T04:27:18;16.80;99.90
10828;DHT22;5467;59.334;13.512;2022-08-11T04:30:00;16.80;99.90
10828;DHT22;5467;59.334;13.512;2022-08-11T04:32:41;16.80;99.90
10828;DHT22;5467;59.334;13.512;2022-08-11T04:35:28;16.80;99.90
10828;DHT22;5467;59.334;13.512;2022-08-11T04:47:50;17.00;99.90
10828;DHT22;5467;59.334;13.512;2022-08-11T04:50:52;17.00;99.90
10828;DHT22;5467;59.334;13.512;2022-08-11T04:53:49;16.90;99.90
10828;DHT22;5467;59.334;13.512;2022-08-11T04:56:42;17.00;99.90
10828;DHT22;5467;59.334;13.512;2022-08-11T04:59:57;16.90;99.90
10828;DHT22;5467;59.334;13.512;2022-08-11T05:09:29;17.40;99.90
10828;DHT22;5467;59.334;13.512;2022-08-11T05:12:24;17.60;99.90
10828;DHT22;5467;59.334;13.512;2022-08-11T05:14:55;17.70;99.90
10828;DHT22;5467;59.334;13.512;2022-08-11T05:17:44;17.60;99.90
10828;DHT22;5467;59.334;13.512;2022-08-11T05:20:46;17.70;99.90
10828;DHT22;5467;59.334;13.512;2022-08-11T05:23:33;18.00;99.90
10828;DHT22;5467;59.334;13.512;2022-08-11T05:26:20;18.30;99.90
10828;DHT22;5467;59.334;13.512;2022-08-11T05:29:27;18.90;99.90
10828;DHT22;5467;59.334;13.512;2022-08-11T05:32:19;19.40;99.90
10828;DHT22;5467;59.334;13.512;2022-08-11T05:35:06;19.70;99.90
10828;DHT22;5467;59.334;13.512;2022-08-11T05:37:40;20.10;99.90
10828;DHT22;5467;59.334;13.512;2022-08-11T05:40:22;20.10;99.90
10828;DHT22;5467;59.334;13.512;2022-08-11T05:43:12;19.60;99.90
10828;DHT22;5467;59.334;13.512;2022-08-11T05:45:58;19.40;99.90
10828;DHT22;5467;59.334;13.512;2022-08-11T05:48:46;19.20;99.90
10828;DHT22;5467;59.334;13.512;2022-08-11T05:51:35;19.30;99.90
10828;DHT22;5467;59.334;13.512;2022-08-11T05:54:20;19.10;99.90
10828;DHT22;5467;59.334;13.512;2022-08-11T05:57:05;19.00;99.90
10828;DHT22;5467;59.334;13.512;2022-08-11T05:59:35;19.00;99.90
10828;DHT22;5467;59.334;13.512;2022-08-11T06:02:04;18.90;99.90
10828;DHT22;5467;59.334;13.512;2022-08-11T06:04:33;18.80;99.90
10828;DHT22;5467;59.334;13.512;2022-08-11T06:07:04;18.90;99.90
10828;DHT22;5467;59.334;13.512;2022-08-11T06:09:35;18.90;99.90
10828;DHT22;5467;59.334;13.512;2022-08-11T06:12:05;18.90;99.90
10828;DHT22;5467;59.334;13.512;2022-08-11T06:14:40;19.00;99.90
10828;DHT22;5467;59.334;13.512;2022-08-11T06:17:09;19.20;99.90
10828;DHT22;5467;59.334;13.512;2022-08-11T06:19:38;19.20;99.90
10828;DHT22;5467;59.334;13.512;2022-08-11T06:22:08;19.10;99.90
10828;DHT22;5467;59.334;13.512;2022-08-11T06:24:38;19.00;99.90
10828;DHT22;5467;59.334;13.512;2022-08-11T06:27:06;19.00;99.90
10828;DHT22;5467;59.334;13.512;2022-08-11T06:29:37;18.90;99.90
10828;DHT22;5467;59.334;13.512;2022-08-11T06:32:07;18.80;99.90
10828;DHT22;5467;59.334;13.512;2022-08-11T06:37:38;18.90;99.90
10828;DHT22;5467;59.334;13.512;2022-08-11T06:40:14;19.10;99.90
10828;DHT22;5467;59.334;13.512;2022-08-11T06:42:50;19.10;99.90
10828;DHT22;5467;59.334;13.512;2022-08-11T06:45:28;19.10;99.90
10828;DHT22;5467;59.334;13.512;2022-08-11T06:47:56;19.10;99.90
10828;DHT22;5467;59.334;13.512;2022-08-11T06:50:26;19.10;99.90
10828;DHT22;5467;59.334;13.512;2022-08-11T06:53:14;19.10;99.90
10828;DHT22;5467;59.334;13.512;2022-08-11T06:55:44;19.30;99.90
10828;DHT22;5467;59.334;13.512;2022-08-11T06:58:31;19.40;99.90
10828;DHT22;5467;59.334;13.512;2022-08-11T07:01:23;19.50;99.90
10828;DHT22;5467;59.334;13.512;2022-08-11T07:03:58;19.50;99.90
10828;DHT22;5467;59.334;13.512;2022-08-11T07:06:46;19.60;99.90
10828;DHT22;5467;59.334;13.512;2022-08-11T07:09:56;19.80;99.90
10828;DHT22;5467;59.334;13.512;2022-08-11T07:12:48;19.80;99.90
10828;DHT22;5467;59.334;13.512;2022-08-11T07:15:34;20.20;99.90
10828;DHT22;5467;59.334;13.512;2022-08-11T07:18:11;20.20;99.90
10828;DHT22;5467;59.334;13.512;2022-08-11T07:21:08;20.50;99.90
10828;DHT22;5467;59.334;13.512;2022-08-11T07:23:55;21.00;99.90
10828;DHT22;5467;59.334;13.512;2022-08-11T07:26:44;21.20;99.90
10828;DHT22;5467;59.334;13.512;2022-08-11T07:29:31;21.40;99.90
10828;DHT22;5467;59.334;13.512;2022-08-11T07:32:01;21.40;99.90
10828;DHT22;5467;59.334;13.512;2022-08-11T07:34:37;21.30;99.90
10828;DHT22;5467;59.334;13.512;2022-08-11T07:37:09;21.30;99.90
10828;DHT22;5467;59.334;13.512;2022-08-11T07:39:38;21.30;99.90
10828;DHT22;5467;59.334;13.512;2022-08-11T07:42:07;21.10;99.90
10828;DHT22;5467;59.334;13.512;2022-08-11T07:44:35;20.80;99.90
10828;DHT22;5467;59.334;13.512;2022-08-11T07:47:23;20.70;99.90
10828;DHT22;5467;59.334;13.512;2022-08-11T07:50:10;20.70;99.90
10828;DHT22;5467;59.334;13.512;2022-08-11T07:52:57;20.80;99.90
10828;DHT22;5467;59.334;13.512;2022-08-11T07:55:25;20.80;99.90
10828;DHT22;5467;59.334;13.512;2022-08-11T07:57:55;20.70;99.90
10828;DHT22;5467;59.334;13.512;2022-08-11T08:00:43;20.80;99.90
10828;DHT22;5467;59.334;13.512;2022-08-11T08:03:29;20.80;99.90
10828;DHT22;5467;59.334;13.512;2022-08-11T08:06:15;20.80;99.90
10828;DHT22;5467;59.334;13.512;2022-08-11T08:09:01;20.80;99.90
10828;DHT22;5467;59.334;13.512;2022-08-11T08:11:46;21.00;99.90
10828;DHT22;5467;59.334;13.512;2022-08-11T08:14:32;21.10;99.90
10828;DHT22;5467;59.334;13.512;2022-08-11T08:17:17;21.30;99.90
10828;DHT22;5467;59.334;13.512;2022-08-11T08:20:03;21.30;99.90
10828;DHT22;5467;59.334;13.512;2022-08-11T08:22:34;21.40;99.90
10828;DHT22;5467;59.334;13.512;2022-08-11T08:25:02;21.60;99.90
10828;DHT22;5467;59.334;13.512;2022-08-11T08:27:29;21.90;99.90
10828;DHT22;5467;59.334;13.512;2022-08-11T08:29:57;22.10;99.90
10828;DHT22;5467;59.334;13.512;2022-08-11T08:32:42;22.30;99.90
10828;DHT22;5467;59.334;13.512;2022-08-11T08:35:10;22.70;99.90
10828;DHT22;5467;59.334;13.512;2022-08-11T08:37:39;22.80;99.90
10828;DHT22;5467;59.334;13.512;2022-08-11T08:40:07;23.10;99.90
10828;DHT22;5467;59.334;13.512;2022-08-11T08:42:39;23.20;99.90
10828;DHT22;5467;59.334;13.512;2022-08-11T08:45:09;23.20;99.90
10828;DHT22;5467;59.334;13.512;2022-08-11T08:47:40;23.20;99.90
10828;DHT22;5467;59.334;13.512;2022-08-11T08:50:10;23.20;99.90
10828;DHT22;5467;59.334;13.512;2022-08-11T08:52:44;23.40;99.90
10828;DHT22;5467;59.334;13.512;2022-08-11T08:55:16;23.60;99.90
10828;DHT22;5467;59.334;13.512;2022-08-11T08:57:46;23.70;99.90
10828;DHT22;5467;59.334;13.512;2022-08-11T09:00:15;23.90;99.90
10828;DHT22;5467;59.334;13.512;2022-08-11T09:02:43;24.00;99.90
10828;DHT22;5467;59.334;13.512;2022-08-11T09:05:11;24.00;99.90
10828;DHT22;5467;59.334;13.512;2022-08-11T09:07:40;24.20;99.90
10828;DHT22;5467;59.334;13.512;2022-08-11T09:10:08;24.40;99.90
10828;DHT22;5467;59.334;13.512;2022-08-11T09:12:38;24.40;99.90
10828;DHT22;5467;59.334;13.512;2022-08-11T09:15:08;24.00;99.90
10828;DHT22;5467;59.334;13.512;2022-08-11T09:17:40;24.10;99.90
10828;DHT22;5467;59.334;13.512;2022-08-11T09:20:10;24.30;99.90
10828;DHT22;5467;59.334;13.512;2022-08-11T09:22:41;24.40;99.90
10828;DHT22;5467;59.334;13.512;2022-08-11T09:25:29;24.50;99.90
10828;DHT22;5467;59.334;13.512;2022-08-11T09:28:15;24.50;99.90
10828;DHT22;5467;59.334;13.512;2022-08-11T09:30:44;24.40;99.90
10828;DHT22;5467;59.334;13.512;2022-08-11T09:33:14;24.30;99.90
10828;DHT22;5467;59.334;13.512;2022-08-11T09:35:42;24.40;99.90
10828;DHT22;5467;59.334;13.512;2022-08-11T09:38:15;24.90;99.90
10828;DHT22;5467;59.334;13.512;2022-08-11T09:41:02;24.90;99.90
10828;DHT22;5467;59.334;13.512;2022-08-11T09:43:31;25.10;99.90
10828;DHT22;5467;59.334;13.512;2022-08-11T09:46:16;25.20;99.90
10828;DHT22;5467;59.334;13.512;2022-08-11T09:48:48;25.00;99.90
10828;DHT22;5467;59.334;13.512;2022-08-11T09:51:20;25.00;99.90
10828;DHT22;5467;59.334;13.512;2022-08-11T09:53:49;25.30;99.90
10828;DHT22;5467;59.334;13.512;2022-08-11T09:56:19;25.20;99.90
10828;DHT22;5467;59.334;13.512;2022-08-11T09:59:04;25.30;99.90
10828;DHT22;5467;59.334;13.512;2022-08-11T10:01:38;25.50;99.90
10828;DHT22;5467;59.334;13.512;2022-08-11T10:04:11;25.70;99.90
10828;DHT22;5467;59.334;13.512;2022-08-11T10:06:42;25.80;99.90
10828;DHT22;5467;59.334;13.512;2022-08-11T10:09:35;25.20;99.90
10828;DHT22;5467;59.334;13.512;2022-08-11T10:12:07;25.20;99.90
10828;DHT22;5467;59.334;13.512;2022-08-11T10:14:37;25.30;99.90
10828;DHT22;5467;59.334;13.512;2022-08-11T10:17:24;25.60;99.90
10828;DHT22;5467;59.334;13.512;2022-08-11T10:19:53;25.60;99.90
10828;DHT22;5467;59.334;13.512;2022-08-11T10:22:22;25.60;99.90
10828;DHT22;5467;59.334;13.512;2022-08-11T10:25:20;25.50;99.90
10828;DHT22;5467;59.334;13.512;2022-08-11T10:28:07;25.40;99.90
10828;DHT22;5467;59.334;13.512;2022-08-11T10:30:35;25.50;99.90
10828;DHT22;5467;59.334;13.512;2022-08-11T10:33:21;25.60;99.90
10828;DHT22;5467;59.334;13.512;2022-08-11T10:36:06;25.80;99.90
10828;DHT22;5467;59.334;13.512;2022-08-11T10:38:34;25.90;99.90
10828;DHT22;5467;59.334;13.512;2022-08-11T10:41:04;25.70;99.90
10828;DHT22;5467;59.334;13.512;2022-08-11T10:43:50;25.40;99.90
10828;DHT22;5467;59.334;13.512;2022-08-11T10:46:19;25.20;99.90
10828;DHT22;5467;59.334;13.512;2022-08-11T10:49:03;25.10;99.90
10828;DHT22;5467;59.334;13.512;2022-08-11T10:51:31;25.50;99.90
10828;DHT22;5467;59.334;13.512;2022-08-11T10:54:16;25.50;99.90
10828;DHT22;5467;59.334;13.512;2022-08-11T10:57:03;25.50;99.90
10828;DHT22;5467;59.334;13.512;2022-08-11T10:59:47;25.50;99.90
10828;DHT22;5467;59.334;13.512;2022-08-11T11:02:15;25.30;99.90
10828;DHT22;5467;59.334;13.512;2022-08-11T11:04:58;25.50;99.90
10828;DHT22;5467;59.334;13.512;2022-08-11T11:07:36;25.70;99.90
10828;DHT22;5467;59.334;13.512;2022-08-11T11:10:05;25.90;99.90
10828;DHT22;5467;59.334;13.512;2022-08-11T11:12:39;26.00;99.90
10828;DHT22;5467;59.334;13.512;2022-08-11T11:15:26;25.80;99.90
10828;DHT22;5467;59.334;13.512;2022-08-11T11:18:16;25.50;99.90
10828;DHT22;5467;59.334;13.512;2022-08-11T11:20:49;25.60;99.90
10828;DHT22;5467;59.334;13.512;2022-08-11T11:23:19;25.60;99.90
10828;DHT22;5467;59.334;13.512;2022-08-11T11:29:15;25.70;99.90
10828;DHT22;5467;59.334;13.512;2022-08-11T11:31:58;25.70;99.90
10828;DHT22;5467;59.334;13.512;2022-08-11T11:34:53;25.60;99.90
10828;DHT22;5467;59.334;13.512;2022-08-11T11:37:23;25.80;99.90
10828;DHT22;5467;59.334;13.512;2022-08-11T11:39:50;26.00;99.90
10828;DHT22;5467;59.334;13.512;2022-08-11T11:42:18;26.00;99.90
10828;DHT22;5467;59.334;13.512;2022-08-11T11:44:47;26.10;99.90
10828;DHT22;5467;59.334;13.512;2022-08-11T11:47:18;26.10;99.90
10828;DHT22;5467;59.334;13.512;2022-08-11T11:49:48;26.30;99.90
10828;DHT22;5467;59.334;13.512;2022-08-11T11:52:18;26.40;99.90
10828;DHT22;5467;59.334;13.512;2022-08-11T11:54:47;26.40;99.90
10828;DHT22;5467;59.334;13.512;2022-08-11T11:57:17;26.10;99.90
10828;DHT22;5467;59.334;13.512;2022-08-11T12:00:05;26.00;99.90
10828;DHT22;5467;59.334;13.512;2022-08-11T12:02:50;26.10;99.90
10828;DHT22;5467;59.334;13.512;2022-08-11T12:05:18;26.30;99.90
10828;DHT22;5467;59.334;13.512;2022-08-11T12:07:45;26.40;99.90
10828;DHT22;5467;59.334;13.512;2022-08-11T12:10:30;26.40;99.90
10828;DHT22;5467;59.334;13.512;2022-08-11T12:13:00;26.30;99.90
10828;DHT22;5467;59.334;13.512;2022-08-11T12:15:46;26.40;99.90
10828;DHT22;5467;59.334;13.512;2022-08-11T12:18:14;26.30;99.90
10828;DHT22;5467;59.334;13.512;2022-08-11T12:20:43;26.20;99.90
10828;DHT22;5467;59.334;13.512;2022-08-11T12:23:12;26.20;99.90
10828;DHT22;5467;59.334;13.512;2022-08-11T12:25:58;26.20;99.90
10828;DHT22;5467;59.334;13.512;2022-08-11T12:28:43;26.20;99.90
10828;DHT22;5467;59.334;13.512;2022-08-11T12:31:12;26.30;99.90
10828;DHT22;5467;59.334;13.512;2022-08-11T12:33:40;26.30;99.90
10828;DHT22;5467;59.334;13.512;2022-08-11T12:36:09;26.20;99.90
10828;DHT22;5467;59.334;13.512;2022-08-11T12:38:42;26.40;99.90
10828;DHT22;5467;59.334;13.512;2022-08-11T12:41:10;26.10;99.90
10828;DHT22;5467;59.334;13.512;2022-08-11T12:43:58;26.00;99.90
10828;DHT22;5467;59.334;13.512;2022-08-11T12:46:46;25.80;99.90
10828;DHT22;5467;59.334;13.512;2022-08-11T12:49:16;25.90;99.90
10828;DHT22;5467;59.334;13.512;2022-08-11T12:52:05;25.90;99.90
10828;DHT22;5467;59.334;13.512;2022-08-11T12:54:37;26.00;99.90
10828;DHT22;5467;59.334;13.512;2022-08-11T12:57:11;25.90;99.90
10828;DHT22;5467;59.334;13.512;2022-08-11T12:59:58;25.80;99.90
10828;DHT22;5467;59.334;13.512;2022-08-11T13:02:46;25.90;99.90
10828;DHT22;5467;59.334;13.512;2022-08-11T13:05:31;25.90;99.90
10828;DHT22;5467;59.334;13.512;2022-08-11T13:08:00;25.90;99.90
10828;DHT22;5467;59.334;13.512;2022-08-11T13:10:28;25.70;99.90
10828;DHT22;5467;59.334;13.512;2022-08-11T13:13:17;25.70;99.90
10828;DHT22;5467;59.334;13.512;2022-08-11T13:15:46;25.80;99.90
10828;DHT22;5467;59.334;13.512;2022-08-11T13:18:17;25.80;99.90
10828;DHT22;5467;59.334;13.512;2022-08-11T13:20:48;25.90;99.90
10828;DHT22;5467;59.334;13.512;2022-08-11T13:23:17;26.10;99.90
10828;DHT22;5467;59.334;13.512;2022-08-11T13:25:45;26.20;99.90
10828;DHT22;5467;59.334;13.512;2022-08-11T13:28:13;26.10;99.90
10828;DHT22;5467;59.334;13.512;2022-08-11T13:30:42;26.00;99.90
10828;DHT22;5467;59.334;13.512;2022-08-11T13:33:45;26.00;99.90
10828;DHT22;5467;59.334;13.512;2022-08-11T13:36:18;26.00;99.90
10828;DHT22;5467;59.334;13.512;2022-08-11T13:38:46;25.80;99.90
10828;DHT22;5467;59.334;13.512;2022-08-11T13:41:14;26.00;99.90
10828;DHT22;5467;59.334;13.512;2022-08-11T13:44:01;26.10;99.90
10828;DHT22;5467;59.334;13.512;2022-08-11T13:46:29;25.80;99.90
10828;DHT22;5467;59.334;13.512;2022-08-11T13:48:57;25.70;99.90
10828;DHT22;5467;59.334;13.512;2022-08-11T13:51:25;25.80;99.90
10828;DHT22;5467;59.334;13.512;2022-08-11T13:53:59;25.90;99.90
10828;DHT22;5467;59.334;13.512;2022-08-11T13:56:27;26.00;99.90
10828;DHT22;5467;59.334;13.512;2022-08-11T13:58:55;25.70;99.90
10828;DHT22;5467;59.334;13.512;2022-08-11T14:01:27;25.70;99.90
10828;DHT22;5467;59.334;13.512;2022-08-11T14:03:56;25.80;99.90
10828;DHT22;5467;59.334;13.512;2022-08-11T14:06:24;25.80;99.90
10828;DHT22;5467;59.334;13.512;2022-08-11T14:08:53;25.80;99.90
10828;DHT22;5467;59.334;13.512;2022-08-11T14:11:20;25.70;99.90
10828;DHT22;5467;59.334;13.512;2022-08-11T14:14:06;25.70;99.90
10828;DHT22;5467;59.334;13.512;2022-08-11T14:16:40;25.50;99.90
10828;DHT22;5467;59.334;13.512;2022-08-11T14:19:12;25.60;99.90
10828;DHT22;5467;59.334;13.512;2022-08-11T14:21:42;25.40;99.90
10828;DHT22;5467;59.334;13.512;2022-08-11T14:24:27;25.40;99.90
10828;DHT22;5467;59.334;13.512;2022-08-11T14:26:55;25.40;99.90
10828;DHT22;5467;59.334;13.512;2022-08-11T14:29:25;25.40;99.90
10828;DHT22;5467;59.334;13.512;2022-08-11T14:31:55;25.40;99.90
10828;DHT22;5467;59.334;13.512;2022-08-11T14:34:25;25.40;99.90
10828;DHT22;5467;59.334;13.512;2022-08-11T14:36:55;25.40;99.90
10828;DHT22;5467;59.334;13.512;2022-08-11T14:39:24;25.40;99.90
10828;DHT22;5467;59.334;13.512;2022-08-11T14:41:54;25.30;99.90
10828;DHT22;5467;59.334;13.512;2022-08-11T14:44:42;25.30;99.90
10828;DHT22;5467;59.334;13.512;2022-08-11T14:47:28;25.30;99.90
10828;DHT22;5467;59.334;13.512;2022-08-11T14:49:59;25.20;99.90
10828;DHT22;5467;59.334;13.512;2022-08-11T14:52:30;25.10;99.90
10828;DHT22;5467;59.334;13.512;2022-08-11T14:55:00;25.20;99.90
10828;DHT22;5467;59.334;13.512;2022-08-11T14:57:47;25.20;99.90
10828;DHT22;5467;59.334;13.512;2022-08-11T15:00:16;25.00;99.90
10828;DHT22;5467;59.334;13.512;2022-08-11T15:02:45;25.20;99.90
10828;DHT22;5467;59.334;13.512;2022-08-11T15:05:33;25.00;99.90
10828;DHT22;5467;59.334;13.512;2022-08-11T15:08:01;25.00;99.90
10828;DHT22;5467;59.334;13.512;2022-08-11T15:10:28;25.00;99.90
10828;DHT22;5467;59.334;13.512;2022-08-11T15:12:55;24.90;99.90
10828;DHT22;5467;59.334;13.512;2022-08-11T15:15:24;24.80;99.90
10828;DHT22;5467;59.334;13.512;2022-08-11T15:18:11;24.90;99.90
10828;DHT22;5467;59.334;13.512;2022-08-11T15:20:41;24.80;99.90
10828;DHT22;5467;59.334;13.512;2022-08-11T15:23:26;24.80;99.90
10828;DHT22;5467;59.334;13.512;2022-08-11T15:26:13;24.90;99.90
10828;DHT22;5467;59.334;13.512;2022-08-11T15:28:45;24.90;99.90
10828;DHT22;5467;59.334;13.512;2022-08-11T15:31:30;24.90;99.90
10828;DHT22;5467;59.334;13.512;2022-08-11T15:34:19;24.90;99.90
10828;DHT22;5467;59.334;13.512;2022-08-11T15:37:10;25.10;99.90
10828;DHT22;5467;59.334;13.512;2022-08-11T15:40:02;25.30;99.90
10828;DHT22;5467;59.334;13.512;2022-08-11T15:42:59;25.40;99.90
10828;DHT22;5467;59.334;13.512;2022-08-11T15:45:45;25.40;99.90
10828;DHT22;5467;59.334;13.512;2022-08-11T15:48:19;25.20;99.90
10828;DHT22;5467;59.334;13.512;2022-08-11T15:50:51;25.10;99.90
10828;DHT22;5467;59.334;13.512;2022-08-11T15:53:26;25.10;99.90
10828;DHT22;5467;59.334;13.512;2022-08-11T15:55:54;25.10;99.90
10828;DHT22;5467;59.334;13.512;2022-08-11T15:58:24;25.10;99.90
10828;DHT22;5467;59.334;13.512;2022-08-11T16:01:10;25.10;99.90
10828;DHT22;5467;59.334;13.512;2022-08-11T16:03:59;24.90;99.90
10828;DHT22;5467;59.334;13.512;2022-08-11T16:06:48;24.90;99.90
10828;DHT22;5467;59.334;13.512;2022-08-11T16:09:34;24.90;99.90
10828;DHT22;5467;59.334;13.512;2022-08-11T16:12:03;24.90;99.90
10828;DHT22;5467;59.334;13.512;2022-08-11T16:14:35;24.90;99.90
10828;DHT22;5467;59.334;13.512;2022-08-11T16:17:23;24.90;99.90
10828;DHT22;5467;59.334;13.512;2022-08-11T16:19:53;25.00;99.90
10828;DHT22;5467;59.334;13.512;2022-08-11T16:22:23;25.10;99.90
10828;DHT22;5467;59.334;13.512;2022-08-11T16:25:03;25.00;99.90
10828;DHT22;5467;59.334;13.512;2022-08-11T16:27:33;25.00;99.90
10828;DHT22;5467;59.334;13.512;2022-08-11T16:30:03;24.90;99.90
10828;DHT22;5467;59.334;13.512;2022-08-11T16:32:33;24.90;99.90
10828;DHT22;5467;59.334;13.512;2022-08-11T16:35:02;24.90;99.90
10828;DHT22;5467;59.334;13.512;2022-08-11T16:37:48;25.00;99.90
10828;DHT22;5467;59.334;13.512;2022-08-11T16:40:36;25.00;99.90
10828;DHT22;5467;59.334;13.512;2022-08-11T16:43:06;24.90;99.90
10828;DHT22;5467;59.334;13.512;2022-08-11T16:45:52;24.90;99.90
10828;DHT22;5467;59.334;13.512;2022-08-11T16:48:39;24.80;99.90
10828;DHT22;5467;59.334;13.512;2022-08-11T16:51:10;24.70;99.90
10828;DHT22;5467;59.334;13.512;2022-08-11T16:53:38;24.60;99.90
10828;DHT22;5467;59.334;13.512;2022-08-11T16:56:07;24.50;99.90
10828;DHT22;5467;59.334;13.512;2022-08-11T16:58:36;24.40;99.90
10828;DHT22;5467;59.334;13.512;2022-08-11T17:01:24;24.40;99.90
10828;DHT22;5467;59.334;13.512;2022-08-11T17:03:55;24.40;99.90
10828;DHT22;5467;59.334;13.512;2022-08-11T17:06:44;24.30;99.90
10828;DHT22;5467;59.334;13.512;2022-08-11T17:09:32;24.20;99.90
10828;DHT22;5467;59.334;13.512;2022-08-11T17:12:21;24.10;99.90
10828;DHT22;5467;59.334;13.512;2022-08-11T17:15:10;24.10;99.90
10828;DHT22;5467;59.334;13.512;2022-08-11T17:17:52;24.00;99.90
10828;DHT22;5467;59.334;13.512;2022-08-11T17:20:21;24.00;99.90
10828;DHT22;5467;59.334;13.512;2022-08-11T17:22:49;23.90;99.90
10828;DHT22;5467;59.334;13.512;2022-08-11T17:25:35;23.80;99.90
10828;DHT22;5467;59.334;13.512;2022-08-11T17:28:05;23.70;99.90
10828;DHT22;5467;59.334;13.512;2022-08-11T17:30:33;23.60;99.90
10828;DHT22;5467;59.334;13.512;2022-08-11T17:33:19;23.40;99.90
10828;DHT22;5467;59.334;13.512;2022-08-11T17:36:06;23.30;99.90
10828;DHT22;5467;59.334;13.512;2022-08-11T17:38:35;23.20;99.90